Grangeville, ID (83530)

7:02 AM PST on December 26, 2014 (GMT -0800)
Elk St. | Change Station
CLOSE
Current Station
Personal Weather Station
Location: Grangeville, ID
Elevation: 3460 ft
Nearby Weather Stations

Elev 3460 ft 45.92 °N, 116.13 °W | Updated 7 seconds ago

Overcast
Overcast
29.2 °F
Feels Like 22 °F
N
7.0
Wind Variable Wind from WSW
Gusts 8.0 mph

Today
High -- | Low -- °F
--% Chance of Precip.
Yesterday
High -- | Low -- °F
Precip. -- in
7:25 AM 4:05 PM
Waxing Crescent, 26% visible
Pressure 30.18 in
Visibility 10.0 miles
Clouds Scattered Clouds 3100 ft
Mostly Cloudy 4600 ft
Overcast 7000 ft
Windchill 22 °F
Dew Point 25 °F
Humidity 85%
Rainfall 0.00 in
Snow Depth Not available.
UV 0 out of 12
Pollen .10 out of 12
Air Quality Not available.
Flu Activity Not available.
METAR KGIC 261455Z AUTO 27003KT 10SM SCT031 BKN046 OVC070 M02/M04 A3018 RMK AO1 T10171044

More Conditions Fewer Conditions

Pressure 30.18 in
Visibility 10.0 miles
Clouds Scattered Clouds 3100 ft
Mostly Cloudy 4600 ft
Overcast 7000 ft
Windchill 22 °F
Dew Point 25 °F
Humidity 85%
Rainfall 0.00 in
Snow Depth Not available.
UV 0 out of 12
Pollen .10 out of 12
Air Quality Not available.
Flu Activity Not available.
METAR KGIC 261455Z AUTO 27003KT 10SM SCT031 BKN046 OVC070 M02/M04 A3018 RMK AO1 T10171044

More Conditions Fewer Conditions

10-Day Weather Forecast

Almanac

Astronomy

Dec. 26, 2014 Rise Set
Actual Time
Civil Twilight
Nautical Twilight
Astronomical Twilight
Moon
Length of Visible Light
Length of Day
Tomorrow will be .
, % of the Moon is Illuminated

Today's Extremes

State Highs State Lows

Community

WunderPhotos

Upload Photos

1,780,597 photos uploaded!

WunderBlogs® & News

Nearby

Air Quality

  Air Quality AQ Index Pollutant
Not available.

Snow Depth

Station Depth Elevation

Earthquake Activity

City Distance Mag. Time & Date
Minimum magnitude displayed is 2.5.

Coastal Water Temperatures

Place Temperature

Nearby Weather Stations